sensor_id;sensor_type;location;lat;lon;timestamp;pressure;altitude;pressure_sealevel;temperature;humidity
23229;BME280;11783;50.350;6.576;2023-05-20T00:00:02;96715.91;;;13.17;63.57
23229;BME280;11783;50.350;6.576;2023-05-20T00:02:28;96712.69;;;13.15;63.42
23229;BME280;11783;50.350;6.576;2023-05-20T00:04:53;96715.78;;;13.07;62.77
23229;BME280;11783;50.350;6.576;2023-05-20T00:07:19;96714.56;;;12.97;63.64
23229;BME280;11783;50.350;6.576;2023-05-20T00:09:44;96714.50;;;12.92;63.16
23229;BME280;11783;50.350;6.576;2023-05-20T00:12:10;96711.03;;;12.92;63.40
23229;BME280;11783;50.350;6.576;2023-05-20T00:14:35;96705.34;;;12.83;63.56
23229;BME280;11783;50.350;6.576;2023-05-20T00:17:01;96704.69;;;12.76;64.11
23229;BME280;11783;50.350;6.576;2023-05-20T00:19:26;96701.63;;;12.67;63.92
23229;BME280;11783;50.350;6.576;2023-05-20T00:21:51;96695.88;;;12.59;63.83
23229;BME280;11783;50.350;6.576;2023-05-20T00:24:17;96701.97;;;12.54;63.80
23229;BME280;11783;50.350;6.576;2023-05-20T00:26:42;96704.44;;;12.44;64.30
23229;BME280;11783;50.350;6.576;2023-05-20T00:29:08;96708.03;;;12.33;64.65
23229;BME280;11783;50.350;6.576;2023-05-20T00:31:33;96709.22;;;12.25;65.00
23229;BME280;11783;50.350;6.576;2023-05-20T00:33:58;96711.47;;;12.17;65.85
23229;BME280;11783;50.350;6.576;2023-05-20T00:36:24;96705.72;;;12.08;66.04
23229;BME280;11783;50.350;6.576;2023-05-20T00:38:49;96703.31;;;12.06;66.02
23229;BME280;11783;50.350;6.576;2023-05-20T00:41:15;96702.97;;;12.03;66.58
23229;BME280;11783;50.350;6.576;2023-05-20T00:43:41;96699.50;;;12.02;66.50
23229;BME280;11783;50.350;6.576;2023-05-20T00:46:06;96705.81;;;11.96;66.51
23229;BME280;11783;50.350;6.576;2023-05-20T00:48:39;96702.56;;;11.94;65.87
23229;BME280;11783;50.350;6.576;2023-05-20T00:51:05;96703.94;;;11.97;66.23
23229;BME280;11783;50.350;6.576;2023-05-20T00:53:33;96695.63;;;11.93;65.82
23229;BME280;11783;50.350;6.576;2023-05-20T00:55:58;96698.53;;;11.92;66.02
23229;BME280;11783;50.350;6.576;2023-05-20T00:58:24;96700.41;;;11.91;65.95
23229;BME280;11783;50.350;6.576;2023-05-20T01:00:49;96700.28;;;11.86;66.07
23229;BME280;11783;50.350;6.576;2023-05-20T01:03:15;96692.84;;;11.88;66.40
23229;BME280;11783;50.350;6.576;2023-05-20T01:05:41;96697.13;;;11.89;65.79
23229;BME280;11783;50.350;6.576;2023-05-20T01:08:06;96695.13;;;11.79;66.28
23229;BME280;11783;50.350;6.576;2023-05-20T01:10:33;96686.31;;;11.79;66.45
23229;BME280;11783;50.350;6.576;2023-05-20T01:13:03;96684.09;;;11.76;66.41
23229;BME280;11783;50.350;6.576;2023-05-20T01:15:30;96684.00;;;11.71;65.90
23229;BME280;11783;50.350;6.576;2023-05-20T01:17:57;96684.25;;;11.69;66.53
23229;BME280;11783;50.350;6.576;2023-05-20T01:20:27;96687.06;;;11.63;67.08
23229;BME280;11783;50.350;6.576;2023-05-20T01:22:54;96677.94;;;11.59;66.94
23229;BME280;11783;50.350;6.576;2023-05-20T01:25:20;96684.31;;;11.58;67.53
23229;BME280;11783;50.350;6.576;2023-05-20T01:27:46;96676.56;;;11.56;67.76
23229;BME280;11783;50.350;6.576;2023-05-20T01:30:13;96674.13;;;11.55;67.94
23229;BME280;11783;50.350;6.576;2023-05-20T01:32:48;96671.00;;;11.58;66.93
23229;BME280;11783;50.350;6.576;2023-05-20T01:35:15;96665.00;;;11.50;67.43
23229;BME280;11783;50.350;6.576;2023-05-20T01:37:41;96665.22;;;11.49;67.35
23229;BME280;11783;50.350;6.576;2023-05-20T01:40:08;96659.34;;;11.47;66.76
23229;BME280;11783;50.350;6.576;2023-05-20T01:42:34;96658.44;;;11.41;67.61
23229;BME280;11783;50.350;6.576;2023-05-20T01:45:01;96670.72;;;11.31;67.70
23229;BME280;11783;50.350;6.576;2023-05-20T01:47:26;96666.47;;;11.30;68.14
23229;BME280;11783;50.350;6.576;2023-05-20T01:49:51;96656.63;;;11.30;68.33
23229;BME280;11783;50.350;6.576;2023-05-20T01:52:20;96658.22;;;11.31;68.23
23229;BME280;11783;50.350;6.576;2023-05-20T01:54:46;96654.19;;;11.29;68.22
23229;BME280;11783;50.350;6.576;2023-05-20T01:57:18;96656.38;;;11.32;68.45
23229;BME280;11783;50.350;6.576;2023-05-20T01:59:44;96657.00;;;11.22;68.15
23229;BME280;11783;50.350;6.576;2023-05-20T02:02:09;96658.06;;;11.21;68.35
23229;BME280;11783;50.350;6.576;2023-05-20T02:04:35;96652.97;;;11.19;68.45
23229;BME280;11783;50.350;6.576;2023-05-20T02:07:00;96658.97;;;11.15;68.73
23229;BME280;11783;50.350;6.576;2023-05-20T02:09:25;96645.69;;;11.15;68.41
23229;BME280;11783;50.350;6.576;2023-05-20T02:11:51;96656.78;;;11.12;68.83
23229;BME280;11783;50.350;6.576;2023-05-20T02:14:16;96657.75;;;11.06;69.01
23229;BME280;11783;50.350;6.576;2023-05-20T02:16:41;96663.53;;;11.03;69.47
23229;BME280;11783;50.350;6.576;2023-05-20T02:19:07;96659.84;;;11.04;69.14
23229;BME280;11783;50.350;6.576;2023-05-20T02:21:38;96660.31;;;11.01;69.05
23229;BME280;11783;50.350;6.576;2023-05-20T02:24:04;96651.63;;;10.93;70.15
23229;BME280;11783;50.350;6.576;2023-05-20T02:26:30;96649.53;;;10.96;70.65
23229;BME280;11783;50.350;6.576;2023-05-20T02:28:55;96650.59;;;10.95;70.17
23229;BME280;11783;50.350;6.576;2023-05-20T02:31:20;96645.75;;;10.91;70.16
23229;BME280;11783;50.350;6.576;2023-05-20T02:33:46;96645.16;;;10.89;69.89
23229;BME280;11783;50.350;6.576;2023-05-20T02:36:12;96639.75;;;10.84;70.33
23229;BME280;11783;50.350;6.576;2023-05-20T02:38:37;96643.94;;;10.80;70.22
23229;BME280;11783;50.350;6.576;2023-05-20T02:41:03;96646.59;;;10.80;70.52
23229;BME280;11783;50.350;6.576;2023-05-20T02:43:29;96637.00;;;10.79;70.42
23229;BME280;11783;50.350;6.576;2023-05-20T02:45:55;96638.84;;;10.79;70.50
23229;BME280;11783;50.350;6.576;2023-05-20T02:48:21;96638.97;;;10.72;70.66
23229;BME280;11783;50.350;6.576;2023-05-20T02:50:46;96645.88;;;10.73;70.58
23229;BME280;11783;50.350;6.576;2023-05-20T02:53:12;96631.94;;;10.66;71.34
23229;BME280;11783;50.350;6.576;2023-05-20T02:55:37;96634.69;;;10.71;72.02
23229;BME280;11783;50.350;6.576;2023-05-20T02:58:02;96636.19;;;10.67;70.78
23229;BME280;11783;50.350;6.576;2023-05-20T03:00:28;96634.00;;;10.64;70.91
23229;BME280;11783;50.350;6.576;2023-05-20T03:02:55;96641.75;;;10.66;71.32
23229;BME280;11783;50.350;6.576;2023-05-20T03:05:21;96632.88;;;10.60;72.17
23229;BME280;11783;50.350;6.576;2023-05-20T03:07:47;96626.38;;;10.56;71.39
23229;BME280;11783;50.350;6.576;2023-05-20T03:10:13;96628.69;;;10.52;71.95
23229;BME280;11783;50.350;6.576;2023-05-20T03:12:38;96623.72;;;10.56;71.65
23229;BME280;11783;50.350;6.576;2023-05-20T03:15:04;96624.66;;;10.50;71.89
23229;BME280;11783;50.350;6.576;2023-05-20T03:17:29;96627.31;;;10.50;72.46
23229;BME280;11783;50.350;6.576;2023-05-20T03:19:54;96618.88;;;10.53;72.29
23229;BME280;11783;50.350;6.576;2023-05-20T03:22:20;96626.41;;;10.44;72.58
23229;BME280;11783;50.350;6.576;2023-05-20T03:24:45;96624.88;;;10.48;72.37
23229;BME280;11783;50.350;6.576;2023-05-20T03:27:12;96625.69;;;10.49;72.58
23229;BME280;11783;50.350;6.576;2023-05-20T03:29:37;96628.81;;;10.46;72.48
23229;BME280;11783;50.350;6.576;2023-05-20T03:32:03;96630.91;;;10.44;72.75
23229;BME280;11783;50.350;6.576;2023-05-20T03:34:28;96618.66;;;10.43;72.73
23229;BME280;11783;50.350;6.576;2023-05-20T03:36:54;96622.94;;;10.44;72.61
23229;BME280;11783;50.350;6.576;2023-05-20T03:39:21;96620.94;;;10.39;72.82
23229;BME280;11783;50.350;6.576;2023-05-20T03:41:46;96617.50;;;10.39;73.28
23229;BME280;11783;50.350;6.576;2023-05-20T03:44:12;96619.47;;;10.31;73.45
23229;BME280;11783;50.350;6.576;2023-05-20T03:46:37;96618.66;;;10.31;73.46
23229;BME280;11783;50.350;6.576;2023-05-20T03:49:03;96621.44;;;10.24;73.68
23229;BME280;11783;50.350;6.576;2023-05-20T03:51:28;96617.50;;;10.27;73.86
23229;BME280;11783;50.350;6.576;2023-05-20T03:53:54;96614.84;;;10.27;73.84
23229;BME280;11783;50.350;6.576;2023-05-20T03:56:19;96617.97;;;10.24;74.17
23229;BME280;11783;50.350;6.576;2023-05-20T03:58:45;96614.56;;;10.17;73.66
23229;BME280;11783;50.350;6.576;2023-05-20T04:01:11;96614.34;;;10.18;73.90
23229;BME280;11783;50.350;6.576;2023-05-20T04:03:38;96620.22;;;10.20;74.86
23229;BME280;11783;50.350;6.576;2023-05-20T04:06:04;96614.34;;;10.18;74.58
23229;BME280;11783;50.350;6.576;2023-05-20T04:08:29;96612.16;;;10.15;74.92
23229;BME280;11783;50.350;6.576;2023-05-20T04:10:56;96613.44;;;10.13;74.99
23229;BME280;11783;50.350;6.576;2023-05-20T04:13:23;96606.72;;;10.10;74.73
23229;BME280;11783;50.350;6.576;2023-05-20T04:15:49;96609.16;;;10.12;74.45
23229;BME280;11783;50.350;6.576;2023-05-20T04:18:16;96611.47;;;10.08;76.66
23229;BME280;11783;50.350;6.576;2023-05-20T04:20:41;96615.25;;;10.00;76.04
23229;BME280;11783;50.350;6.576;2023-05-20T04:23:06;96615.16;;;9.95;75.57
23229;BME280;11783;50.350;6.576;2023-05-20T04:25:32;96615.72;;;9.97;75.90
23229;BME280;11783;50.350;6.576;2023-05-20T04:27:58;96610.88;;;9.94;75.49
23229;BME280;11783;50.350;6.576;2023-05-20T04:30:24;96607.19;;;9.95;75.36
23229;BME280;11783;50.350;6.576;2023-05-20T04:32:50;96603.25;;;9.98;75.78
23229;BME280;11783;50.350;6.576;2023-05-20T04:35:15;96602.56;;;10.02;76.23
23229;BME280;11783;50.350;6.576;2023-05-20T04:37:41;96611.56;;;10.01;76.32
23229;BME280;11783;50.350;6.576;2023-05-20T04:40:09;96614.22;;;10.01;75.89
23229;BME280;11783;50.350;6.576;2023-05-20T04:42:36;96612.38;;;10.02;75.89
23229;BME280;11783;50.350;6.576;2023-05-20T04:45:02;96608.09;;;10.01;75.79
23229;BME280;11783;50.350;6.576;2023-05-20T04:47:29;96607.75;;;9.97;76.00
23229;BME280;11783;50.350;6.576;2023-05-20T04:49:55;96603.59;;;10.01;76.42
23229;BME280;11783;50.350;6.576;2023-05-20T04:52:23;96620.22;;;9.97;76.55
23229;BME280;11783;50.350;6.576;2023-05-20T04:54:50;96609.59;;;9.97;76.22
23229;BME280;11783;50.350;6.576;2023-05-20T04:57:16;96614.22;;;10.01;76.74
23229;BME280;11783;50.350;6.576;2023-05-20T04:59:45;96611.22;;;9.98;78.14
23229;BME280;11783;50.350;6.576;2023-05-20T05:02:10;96612.25;;;9.97;78.92
23229;BME280;11783;50.350;6.576;2023-05-20T05:04:36;96603.03;;;9.99;77.72
23229;BME280;11783;50.350;6.576;2023-05-20T05:07:01;96600.38;;;9.99;77.30
23229;BME280;11783;50.350;6.576;2023-05-20T05:09:26;96598.50;;;10.00;76.95
23229;BME280;11783;50.350;6.576;2023-05-20T05:11:52;96596.19;;;10.03;77.54
23229;BME280;11783;50.350;6.576;2023-05-20T05:14:17;96590.88;;;10.03;77.60
23229;BME280;11783;50.350;6.576;2023-05-20T05:16:42;96588.47;;;10.02;77.58
23229;BME280;11783;50.350;6.576;2023-05-20T05:19:08;96585.59;;;10.03;77.62
23229;BME280;11783;50.350;6.576;2023-05-20T05:21:33;96587.44;;;10.03;76.72
23229;BME280;11783;50.350;6.576;2023-05-20T05:23:58;96580.66;;;10.07;78.04
23229;BME280;11783;50.350;6.576;2023-05-20T05:26:24;96579.38;;;10.10;79.29
23229;BME280;11783;50.350;6.576;2023-05-20T05:28:53;96579.03;;;10.06;77.95
23229;BME280;11783;50.350;6.576;2023-05-20T05:31:19;96582.25;;;10.08;79.29
23229;BME280;11783;50.350;6.576;2023-05-20T05:33:44;96573.81;;;10.11;81.12
23229;BME280;11783;50.350;6.576;2023-05-20T05:36:10;96574.53;;;10.07;80.39
23229;BME280;11783;50.350;6.576;2023-05-20T05:38:35;96575.19;;;10.02;80.60
23229;BME280;11783;50.350;6.576;2023-05-20T05:41:01;96582.34;;;10.01;79.11
23229;BME280;11783;50.350;6.576;2023-05-20T05:43:26;96577.19;;;10.07;80.63
23229;BME280;11783;50.350;6.576;2023-05-20T05:45:52;96574.53;;;10.07;79.99
23229;BME280;11783;50.350;6.576;2023-05-20T05:48:17;96577.53;;;10.10;80.88
23229;BME280;11783;50.350;6.576;2023-05-20T05:50:44;96571.50;;;10.15;81.09
23229;BME280;11783;50.350;6.576;2023-05-20T05:53:10;96570.22;;;10.17;80.80
23229;BME280;11783;50.350;6.576;2023-05-20T05:55:35;96563.06;;;10.18;80.39
23229;BME280;11783;50.350;6.576;2023-05-20T05:58:01;96571.78;;;10.25;81.35
23229;BME280;11783;50.350;6.576;2023-05-20T06:00:26;96569.69;;;10.27;82.46
23229;BME280;11783;50.350;6.576;2023-05-20T06:02:51;96569.69;;;10.27;82.96
23229;BME280;11783;50.350;6.576;2023-05-20T06:05:17;96568.41;;;10.06;84.40
23229;BME280;11783;50.350;6.576;2023-05-20T06:07:42;96577.41;;;10.17;82.44
23229;BME280;11783;50.350;6.576;2023-05-20T06:10:08;96563.81;;;10.25;84.98
23229;BME280;11783;50.350;6.576;2023-05-20T06:12:33;96569.94;;;10.25;83.00
23229;BME280;11783;50.350;6.576;2023-05-20T06:14:59;96572.13;;;10.28;84.61
23229;BME280;11783;50.350;6.576;2023-05-20T06:17:25;96582.16;;;10.26;82.20
23229;BME280;11783;50.350;6.576;2023-05-20T06:19:50;96578.09;;;10.36;80.69
23229;BME280;11783;50.350;6.576;2023-05-20T06:22:15;96573.38;;;10.38;84.13
23229;BME280;11783;50.350;6.576;2023-05-20T06:24:40;96566.66;;;10.47;84.54
23229;BME280;11783;50.350;6.576;2023-05-20T06:27:06;96560.78;;;10.45;86.17
23229;BME280;11783;50.350;6.576;2023-05-20T06:29:31;96568.19;;;10.43;84.64
23229;BME280;11783;50.350;6.576;2023-05-20T06:31:56;96567.81;;;10.39;86.67
23229;BME280;11783;50.350;6.576;2023-05-20T06:34:22;96566.19;;;10.50;88.08
23229;BME280;11783;50.350;6.576;2023-05-20T06:36:47;96562.34;;;10.57;88.38
23229;BME280;11783;50.350;6.576;2023-05-20T06:39:12;96555.75;;;10.72;90.32
23229;BME280;11783;50.350;6.576;2023-05-20T06:41:38;96557.00;;;10.81;87.94
23229;BME280;11783;50.350;6.576;2023-05-20T06:44:04;96555.47;;;10.85;87.02
23229;BME280;11783;50.350;6.576;2023-05-20T06:46:30;96548.41;;;10.90;87.42
23229;BME280;11783;50.350;6.576;2023-05-20T06:48:56;96556.13;;;10.92;88.78
23229;BME280;11783;50.350;6.576;2023-05-20T06:51:21;96548.84;;;10.99;87.57
23229;BME280;11783;50.350;6.576;2023-05-20T06:53:46;96550.06;;;11.08;87.60
23229;BME280;11783;50.350;6.576;2023-05-20T06:56:12;96543.47;;;11.11;85.96
23229;BME280;11783;50.350;6.576;2023-05-20T06:58:37;96550.59;;;11.22;85.75
23229;BME280;11783;50.350;6.576;2023-05-20T07:01:02;96546.06;;;11.22;84.18
23229;BME280;11783;50.350;6.576;2023-05-20T07:03:28;96546.00;;;11.17;88.73
23229;BME280;11783;50.350;6.576;2023-05-20T07:05:53;96543.16;;;11.24;87.25
23229;BME280;11783;50.350;6.576;2023-05-20T07:08:18;96535.59;;;11.33;86.87
23229;BME280;11783;50.350;6.576;2023-05-20T07:10:44;96545.13;;;11.45;88.71
23229;BME280;11783;50.350;6.576;2023-05-20T07:13:10;96539.31;;;11.48;87.87
23229;BME280;11783;50.350;6.576;2023-05-20T07:15:36;96547.25;;;11.60;87.79
23229;BME280;11783;50.350;6.576;2023-05-20T07:18:01;96543.53;;;11.61;85.90
23229;BME280;11783;50.350;6.576;2023-05-20T07:20:26;96542.00;;;11.65;86.83
23229;BME280;11783;50.350;6.576;2023-05-20T07:22:52;96538.59;;;11.70;85.99
23229;BME280;11783;50.350;6.576;2023-05-20T07:25:17;96546.00;;;11.79;87.44
23229;BME280;11783;50.350;6.576;2023-05-20T07:27:42;96549.03;;;11.88;84.58
23229;BME280;11783;50.350;6.576;2023-05-20T07:30:08;96536.38;;;11.95;87.67
23229;BME280;11783;50.350;6.576;2023-05-20T07:32:33;96531.44;;;12.04;89.61
23229;BME280;11783;50.350;6.576;2023-05-20T07:34:59;96527.19;;;12.25;90.80
23229;BME280;11783;50.350;6.576;2023-05-20T07:37:25;96521.81;;;12.41;91.08
23229;BME280;11783;50.350;6.576;2023-05-20T07:39:50;96511.16;;;12.63;92.48
23229;BME280;11783;50.350;6.576;2023-05-20T07:42:16;96511.53;;;12.72;86.06
23229;BME280;11783;50.350;6.576;2023-05-20T07:44:41;96514.44;;;12.92;88.30
23229;BME280;11783;50.350;6.576;2023-05-20T07:47:07;96528.00;;;13.13;83.14
23229;BME280;11783;50.350;6.576;2023-05-20T07:49:32;96514.78;;;13.23;82.92
23229;BME280;11783;50.350;6.576;2023-05-20T07:51:58;96509.88;;;13.42;84.24
23229;BME280;11783;50.350;6.576;2023-05-20T07:54:23;96507.13;;;13.63;83.42
23229;BME280;11783;50.350;6.576;2023-05-20T07:56:48;96504.50;;;13.69;82.76
23229;BME280;11783;50.350;6.576;2023-05-20T07:59:14;96500.31;;;13.83;80.42
23229;BME280;11783;50.350;6.576;2023-05-20T08:01:40;96497.94;;;13.86;78.54
23229;BME280;11783;50.350;6.576;2023-05-20T08:04:06;96496.44;;;14.01;80.90
23229;BME280;11783;50.350;6.576;2023-05-20T08:06:31;96502.69;;;14.21;83.67
23229;BME280;11783;50.350;6.576;2023-05-20T08:08:57;96492.63;;;14.39;77.83
23229;BME280;11783;50.350;6.576;2023-05-20T08:11:22;96498.38;;;14.63;78.22
23229;BME280;11783;50.350;6.576;2023-05-20T08:13:48;96493.41;;;14.97;81.20
23229;BME280;11783;50.350;6.576;2023-05-20T08:16:14;96491.84;;;15.16;78.47
23229;BME280;11783;50.350;6.576;2023-05-20T08:18:39;96497.50;;;15.30;73.51
23229;BME280;11783;50.350;6.576;2023-05-20T08:21:05;96497.25;;;15.52;74.47
23229;BME280;11783;50.350;6.576;2023-05-20T08:23:34;96490.03;;;15.62;72.78
23229;BME280;11783;50.350;6.576;2023-05-20T08:26:00;96503.16;;;15.59;71.36
23229;BME280;11783;50.350;6.576;2023-05-20T08:28:29;96507.44;;;15.60;71.02
23229;BME280;11783;50.350;6.576;2023-05-20T08:30:55;96497.50;;;15.50;71.67
23229;BME280;11783;50.350;6.576;2023-05-20T08:33:22;96487.59;;;15.56;70.51
23229;BME280;11783;50.350;6.576;2023-05-20T08:35:48;96497.53;;;15.75;73.07
23229;BME280;11783;50.350;6.576;2023-05-20T08:38:13;96488.16;;;15.88;74.51
23229;BME280;11783;50.350;6.576;2023-05-20T08:40:39;96493.72;;;16.17;71.00
23229;BME280;11783;50.350;6.576;2023-05-20T08:43:05;96492.59;;;16.33;72.77
23229;BME280;11783;50.350;6.576;2023-05-20T08:45:33;96494.47;;;16.43;70.11
23229;BME280;11783;50.350;6.576;2023-05-20T08:48:01;96487.81;;;16.15;70.03
23229;BME280;11783;50.350;6.576;2023-05-20T08:50:29;96493.44;;;16.24;70.64
23229;BME280;11783;50.350;6.576;2023-05-20T08:52:55;96492.38;;;16.20;70.03
23229;BME280;11783;50.350;6.576;2023-05-20T08:55:30;96480.84;;;16.19;72.01
23229;BME280;11783;50.350;6.576;2023-05-20T08:57:57;96473.34;;;16.11;69.49
23229;BME280;11783;50.350;6.576;2023-05-20T09:00:23;96479.50;;;16.22;70.56
23229;BME280;11783;50.350;6.576;2023-05-20T09:02:53;96476.81;;;16.27;71.95
23229;BME280;11783;50.350;6.576;2023-05-20T09:05:19;96479.19;;;16.33;71.29
23229;BME280;11783;50.350;6.576;2023-05-20T09:07:45;96477.84;;;16.36;71.32
23229;BME280;11783;50.350;6.576;2023-05-20T09:10:10;96472.69;;;16.55;68.93
23229;BME280;11783;50.350;6.576;2023-05-20T09:12:36;96478.56;;;16.62;69.28
23229;BME280;11783;50.350;6.576;2023-05-20T09:15:05;96482.34;;;16.56;71.31
23229;BME280;11783;50.350;6.576;2023-05-20T09:17:34;96480.44;;;16.61;70.79
23229;BME280;11783;50.350;6.576;2023-05-20T09:20:00;96483.13;;;16.67;68.65
23229;BME280;11783;50.350;6.576;2023-05-20T09:22:26;96475.66;;;16.48;71.20
23229;BME280;11783;50.350;6.576;2023-05-20T09:24:52;96487.69;;;16.61;70.62
23229;BME280;11783;50.350;6.576;2023-05-20T09:27:19;96482.84;;;16.68;70.04
23229;BME280;11783;50.350;6.576;2023-05-20T09:29:48;96476.13;;;16.71;72.52
23229;BME280;11783;50.350;6.576;2023-05-20T09:32:14;96470.13;;;16.94;72.97
23229;BME280;11783;50.350;6.576;2023-05-20T09:34:39;96478.84;;;17.10;71.59
23229;BME280;11783;50.350;6.576;2023-05-20T09:37:09;96479.84;;;17.24;72.23
23229;BME280;11783;50.350;6.576;2023-05-20T09:39:45;96493.50;;;17.33;68.78
23229;BME280;11783;50.350;6.576;2023-05-20T09:42:30;96494.97;;;17.15;67.99
23229;BME280;11783;50.350;6.576;2023-05-20T09:45:00;96489.50;;;17.25;69.54
23229;BME280;11783;50.350;6.576;2023-05-20T09:47:28;96495.59;;;17.41;68.93
23229;BME280;11783;50.350;6.576;2023-05-20T09:49:55;96493.66;;;17.46;69.56
23229;BME280;11783;50.350;6.576;2023-05-20T09:52:21;96493.06;;;17.54;70.62
23229;BME280;11783;50.350;6.576;2023-05-20T09:54:47;96490.59;;;17.68;68.85
23229;BME280;11783;50.350;6.576;2023-05-20T09:57:13;96495.13;;;17.73;67.96
23229;BME280;11783;50.350;6.576;2023-05-20T09:59:39;96493.50;;;17.72;66.67
23229;BME280;11783;50.350;6.576;2023-05-20T10:02:05;96486.13;;;17.88;69.71
23229;BME280;11783;50.350;6.576;2023-05-20T10:04:33;96483.09;;;17.94;69.72
23229;BME280;11783;50.350;6.576;2023-05-20T10:07:11;96486.88;;;18.22;67.05
23229;BME280;11783;50.350;6.576;2023-05-20T10:09:58;96489.34;;;18.42;66.23
23229;BME280;11783;50.350;6.576;2023-05-20T10:15:32;96483.41;;;18.40;63.21
23229;BME280;11783;50.350;6.576;2023-05-20T10:20:49;96487.03;;;18.79;64.71
23229;BME280;11783;50.350;6.576;2023-05-20T10:23:22;96483.59;;;18.49;59.90
23229;BME280;11783;50.350;6.576;2023-05-20T10:25:53;96473.91;;;18.72;61.34
23229;BME280;11783;50.350;6.576;2023-05-20T10:28:30;96481.47;;;18.70;60.35
23229;BME280;11783;50.350;6.576;2023-05-20T10:30:57;96473.47;;;18.65;61.91
23229;BME280;11783;50.350;6.576;2023-05-20T10:33:27;96472.25;;;18.76;63.18
23229;BME280;11783;50.350;6.576;2023-05-20T10:35:57;96469.06;;;18.93;63.16
23229;BME280;11783;50.350;6.576;2023-05-20T10:38:22;96468.34;;;18.87;60.87
23229;BME280;11783;50.350;6.576;2023-05-20T10:40:48;96461.66;;;19.03;60.83
23229;BME280;11783;50.350;6.576;2023-05-20T10:43:35;96471.78;;;19.12;62.25
23229;BME280;11783;50.350;6.576;2023-05-20T10:46:00;96468.56;;;19.10;59.22
23229;BME280;11783;50.350;6.576;2023-05-20T10:48:30;96467.75;;;18.90;62.06
23229;BME280;11783;50.350;6.576;2023-05-20T10:51:01;96462.38;;;19.09;60.21
23229;BME280;11783;50.350;6.576;2023-05-20T10:53:37;96465.44;;;19.21;60.61
23229;BME280;11783;50.350;6.576;2023-05-20T10:56:14;96470.47;;;19.28;60.51
23229;BME280;11783;50.350;6.576;2023-05-20T10:58:40;96464.34;;;19.22;58.83
23229;BME280;11783;50.350;6.576;2023-05-20T11:01:06;96464.72;;;18.97;58.81
23229;BME280;11783;50.350;6.576;2023-05-20T11:03:32;96467.94;;;18.99;59.11
23229;BME280;11783;50.350;6.576;2023-05-20T11:05:58;96455.69;;;19.06;59.48
23229;BME280;11783;50.350;6.576;2023-05-20T11:08:28;96462.53;;;19.18;61.11
23229;BME280;11783;50.350;6.576;2023-05-20T11:10:55;96459.38;;;18.92;59.02
23229;BME280;11783;50.350;6.576;2023-05-20T11:13:21;96458.16;;;19.03;59.31
23229;BME280;11783;50.350;6.576;2023-05-20T11:15:47;96454.16;;;18.82;60.41
23229;BME280;11783;50.350;6.576;2023-05-20T11:18:13;96444.81;;;18.93;61.58
23229;BME280;11783;50.350;6.576;2023-05-20T11:20:39;96446.09;;;19.00;62.80
23229;BME280;11783;50.350;6.576;2023-05-20T11:23:05;96447.47;;;19.17;63.01
23229;BME280;11783;50.350;6.576;2023-05-20T11:25:32;96446.59;;;19.21;61.56
23229;BME280;11783;50.350;6.576;2023-05-20T11:28:00;96439.81;;;19.24;60.89
23229;BME280;11783;50.350;6.576;2023-05-20T11:30:26;96436.13;;;19.33;63.54
23229;BME280;11783;50.350;6.576;2023-05-20T11:33:02;96431.88;;;19.65;64.85
23229;BME280;11783;50.350;6.576;2023-05-20T11:35:29;96423.03;;;19.78;57.77
23229;BME280;11783;50.350;6.576;2023-05-20T11:40:25;96430.56;;;19.95;58.66
23229;BME280;11783;50.350;6.576;2023-05-20T11:42:54;96428.56;;;20.01;57.17
23229;BME280;11783;50.350;6.576;2023-05-20T11:45:20;96425.28;;;20.04;56.51
23229;BME280;11783;50.350;6.576;2023-05-20T11:47:45;96418.09;;;20.13;61.50
23229;BME280;11783;50.350;6.576;2023-05-20T11:50:16;96421.50;;;20.32;59.51
23229;BME280;11783;50.350;6.576;2023-05-20T11:52:42;96425.22;;;20.50;57.40
23229;BME280;11783;50.350;6.576;2023-05-20T11:55:13;96428.31;;;20.57;58.20
23229;BME280;11783;50.350;6.576;2023-05-20T11:57:39;96421.41;;;20.51;57.70
23229;BME280;11783;50.350;6.576;2023-05-20T12:00:06;96415.28;;;20.59;57.79
23229;BME280;11783;50.350;6.576;2023-05-20T12:02:34;96409.38;;;20.71;57.21
23229;BME280;11783;50.350;6.576;2023-05-20T12:04:59;96411.84;;;20.81;56.11
23229;BME280;11783;50.350;6.576;2023-05-20T12:07:25;96408.50;;;20.98;57.37
23229;BME280;11783;50.350;6.576;2023-05-20T12:09:50;96414.81;;;21.07;56.05
23229;BME280;11783;50.350;6.576;2023-05-20T12:12:16;96415.28;;;21.09;54.51
23229;BME280;11783;50.350;6.576;2023-05-20T12:14:41;96411.84;;;21.17;54.45
23229;BME280;11783;50.350;6.576;2023-05-20T12:17:06;96418.03;;;21.31;53.41
23229;BME280;11783;50.350;6.576;2023-05-20T12:19:32;96422.03;;;21.34;56.11
23229;BME280;11783;50.350;6.576;2023-05-20T12:21:57;96402.22;;;21.38;51.24
23229;BME280;11783;50.350;6.576;2023-05-20T12:24:22;96402.53;;;21.23;53.86
23229;BME280;11783;50.350;6.576;2023-05-20T12:26:48;96402.28;;;21.11;50.89
23229;BME280;11783;50.350;6.576;2023-05-20T12:29:13;96397.56;;;20.80;55.29
23229;BME280;11783;50.350;6.576;2023-05-20T12:31:38;96395.56;;;20.86;55.80
23229;BME280;11783;50.350;6.576;2023-05-20T12:34:04;96399.91;;;20.96;54.21
23229;BME280;11783;50.350;6.576;2023-05-20T12:36:29;96395.94;;;20.79;54.62
23229;BME280;11783;50.350;6.576;2023-05-20T12:38:55;96390.00;;;20.69;54.91
23229;BME280;11783;50.350;6.576;2023-05-20T12:41:20;96393.50;;;20.55;54.48
23229;BME280;11783;50.350;6.576;2023-05-20T12:43:46;96397.78;;;20.70;54.52
23229;BME280;11783;50.350;6.576;2023-05-20T12:46:12;96390.81;;;20.14;55.00
23229;BME280;11783;50.350;6.576;2023-05-20T12:48:37;96387.31;;;20.27;57.13
23229;BME280;11783;50.350;6.576;2023-05-20T12:51:02;96393.41;;;20.33;55.11
23229;BME280;11783;50.350;6.576;2023-05-20T12:53:28;96395.59;;;20.31;55.50
23229;BME280;11783;50.350;6.576;2023-05-20T12:55:53;96377.50;;;20.32;57.21
23229;BME280;11783;50.350;6.576;2023-05-20T12:58:18;96373.59;;;20.38;56.83
23229;BME280;11783;50.350;6.576;2023-05-20T13:00:44;96375.91;;;20.44;56.77
23229;BME280;11783;50.350;6.576;2023-05-20T13:03:09;96374.91;;;20.54;57.36